sensor_id;sensor_type;location;lat;lon;timestamp;temperature;humidity
14670;DHT22;7423;48.722;9.350;2022-10-18T00:00:54;17.10;99.90
14670;DHT22;7423;48.722;9.350;2022-10-18T00:03:21;17.10;99.90
14670;DHT22;7423;48.722;9.350;2022-10-18T00:05:49;17.10;99.90
14670;DHT22;7423;48.722;9.350;2022-10-18T00:08:16;17.00;99.90
14670;DHT22;7423;48.722;9.350;2022-10-18T00:10:44;17.00;99.90
14670;DHT22;7423;48.722;9.350;2022-10-18T00:13:11;17.00;99.90
14670;DHT22;7423;48.722;9.350;2022-10-18T00:15:39;17.00;99.90
14670;DHT22;7423;48.722;9.350;2022-10-18T00:18:05;16.90;99.90
14670;DHT22;7423;48.722;9.350;2022-10-18T00:20:32;17.00;99.90
14670;DHT22;7423;48.722;9.350;2022-10-18T00:22:59;16.90;99.90
14670;DHT22;7423;48.722;9.350;2022-10-18T00:25:26;16.90;99.90
14670;DHT22;7423;48.722;9.350;2022-10-18T00:27:53;16.90;99.90
14670;DHT22;7423;48.722;9.350;2022-10-18T00:30:19;16.90;99.90
14670;DHT22;7423;48.722;9.350;2022-10-18T00:32:46;16.90;99.90
14670;DHT22;7423;48.722;9.350;2022-10-18T00:35:13;16.90;99.90
14670;DHT22;7423;48.722;9.350;2022-10-18T00:37:40;16.90;99.90
14670;DHT22;7423;48.722;9.350;2022-10-18T00:40:07;16.90;99.90
14670;DHT22;7423;48.722;9.350;2022-10-18T00:42:37;16.90;99.90
14670;DHT22;7423;48.722;9.350;2022-10-18T00:45:18;16.90;99.90
14670;DHT22;7423;48.722;9.350;2022-10-18T00:47:51;16.90;99.90
14670;DHT22;7423;48.722;9.350;2022-10-18T00:50:22;16.90;99.90
14670;DHT22;7423;48.722;9.350;2022-10-18T00:52:53;16.90;99.90
14670;DHT22;7423;48.722;9.350;2022-10-18T00:55:22;16.90;99.90
14670;DHT22;7423;48.722;9.350;2022-10-18T00:57:50;16.80;99.90
14670;DHT22;7423;48.722;9.350;2022-10-18T01:00:17;16.90;99.90
14670;DHT22;7423;48.722;9.350;2022-10-18T01:02:45;16.80;99.90
14670;DHT22;7423;48.722;9.350;2022-10-18T01:05:14;16.80;99.90
14670;DHT22;7423;48.722;9.350;2022-10-18T01:07:56;16.80;99.90
14670;DHT22;7423;48.722;9.350;2022-10-18T01:10:29;16.80;99.90
14670;DHT22;7423;48.722;9.350;2022-10-18T01:21:37;16.70;99.90
14670;DHT22;7423;48.722;9.350;2022-10-18T01:24:36;16.70;99.90
14670;DHT22;7423;48.722;9.350;2022-10-18T01:33:30;16.80;99.90
14670;DHT22;7423;48.722;9.350;2022-10-18T01:36:08;16.70;99.90
14670;DHT22;7423;48.722;9.350;2022-10-18T01:38:42;16.70;99.90
14670;DHT22;7423;48.722;9.350;2022-10-18T01:41:11;16.70;99.90
14670;DHT22;7423;48.722;9.350;2022-10-18T01:43:42;16.70;99.90
14670;DHT22;7423;48.722;9.350;2022-10-18T01:46:13;16.70;99.90
14670;DHT22;7423;48.722;9.350;2022-10-18T01:48:43;16.70;99.90
14670;DHT22;7423;48.722;9.350;2022-10-18T01:51:10;16.70;99.90
14670;DHT22;7423;48.722;9.350;2022-10-18T01:53:37;16.70;99.90
14670;DHT22;7423;48.722;9.350;2022-10-18T01:58:56;16.70;99.90
14670;DHT22;7423;48.722;9.350;2022-10-18T02:07:05;16.70;99.90
14670;DHT22;7423;48.722;9.350;2022-10-18T02:09:41;16.70;99.90
14670;DHT22;7423;48.722;9.350;2022-10-18T02:12:12;16.70;99.90
14670;DHT22;7423;48.722;9.350;2022-10-18T02:14:41;16.70;99.90
14670;DHT22;7423;48.722;9.350;2022-10-18T02:17:11;16.70;99.90
14670;DHT22;7423;48.722;9.350;2022-10-18T02:19:42;16.70;99.90
14670;DHT22;7423;48.722;9.350;2022-10-18T02:22:11;16.70;99.90
14670;DHT22;7423;48.722;9.350;2022-10-18T02:24:45;16.80;99.90
14670;DHT22;7423;48.722;9.350;2022-10-18T02:27:14;16.70;99.90
14670;DHT22;7423;48.722;9.350;2022-10-18T02:29:41;16.80;99.90
14670;DHT22;7423;48.722;9.350;2022-10-18T02:35:05;16.80;99.90
14670;DHT22;7423;48.722;9.350;2022-10-18T02:37:39;16.80;99.90
14670;DHT22;7423;48.722;9.350;2022-10-18T02:40:08;16.80;99.90
14670;DHT22;7423;48.722;9.350;2022-10-18T02:42:39;16.80;99.90
14670;DHT22;7423;48.722;9.350;2022-10-18T02:45:12;16.80;99.90
14670;DHT22;7423;48.722;9.350;2022-10-18T02:47:39;16.80;99.90
14670;DHT22;7423;48.722;9.350;2022-10-18T02:50:07;16.80;99.90
14670;DHT22;7423;48.722;9.350;2022-10-18T02:52:34;16.80;99.90
14670;DHT22;7423;48.722;9.350;2022-10-18T02:55:01;16.80;99.90
14670;DHT22;7423;48.722;9.350;2022-10-18T02:57:28;16.80;99.90
14670;DHT22;7423;48.722;9.350;2022-10-18T02:59:56;16.80;99.90
14670;DHT22;7423;48.722;9.350;2022-10-18T03:02:23;16.80;99.90
14670;DHT22;7423;48.722;9.350;2022-10-18T03:04:50;16.80;99.90
14670;DHT22;7423;48.722;9.350;2022-10-18T03:07:17;16.80;99.90
14670;DHT22;7423;48.722;9.350;2022-10-18T03:09:44;16.80;99.90
14670;DHT22;7423;48.722;9.350;2022-10-18T03:12:10;16.80;99.90
14670;DHT22;7423;48.722;9.350;2022-10-18T03:14:37;16.80;99.90
14670;DHT22;7423;48.722;9.350;2022-10-18T03:17:04;16.80;99.90
14670;DHT22;7423;48.722;9.350;2022-10-18T03:19:31;16.80;99.90
14670;DHT22;7423;48.722;9.350;2022-10-18T03:21:58;16.80;99.90
14670;DHT22;7423;48.722;9.350;2022-10-18T03:24:24;16.80;99.90
14670;DHT22;7423;48.722;9.350;2022-10-18T03:26:51;16.80;99.90
14670;DHT22;7423;48.722;9.350;2022-10-18T03:29:18;16.80;99.90
14670;DHT22;7423;48.722;9.350;2022-10-18T03:31:45;16.80;99.90
14670;DHT22;7423;48.722;9.350;2022-10-18T03:34:12;16.80;99.90
14670;DHT22;7423;48.722;9.350;2022-10-18T03:36:39;16.80;99.90
14670;DHT22;7423;48.722;9.350;2022-10-18T03:39:06;16.90;99.90
14670;DHT22;7423;48.722;9.350;2022-10-18T03:41:33;16.90;99.90
14670;DHT22;7423;48.722;9.350;2022-10-18T03:44:00;16.90;99.90
14670;DHT22;7423;48.722;9.350;2022-10-18T03:46:27;16.80;99.90
14670;DHT22;7423;48.722;9.350;2022-10-18T03:48:54;16.80;99.90
14670;DHT22;7423;48.722;9.350;2022-10-18T03:51:21;16.80;99.90
14670;DHT22;7423;48.722;9.350;2022-10-18T03:53:47;16.80;99.90
14670;DHT22;7423;48.722;9.350;2022-10-18T03:56:14;16.80;99.90
14670;DHT22;7423;48.722;9.350;2022-10-18T03:58:41;16.80;99.90
14670;DHT22;7423;48.722;9.350;2022-10-18T04:01:08;16.80;99.90
14670;DHT22;7423;48.722;9.350;2022-10-18T04:03:35;16.90;99.90
14670;DHT22;7423;48.722;9.350;2022-10-18T04:06:02;16.90;99.90
14670;DHT22;7423;48.722;9.350;2022-10-18T04:08:29;16.80;99.90
14670;DHT22;7423;48.722;9.350;2022-10-18T04:10:56;16.80;99.90
14670;DHT22;7423;48.722;9.350;2022-10-18T04:13:23;16.90;99.90
14670;DHT22;7423;48.722;9.350;2022-10-18T04:15:49;16.90;99.90
14670;DHT22;7423;48.722;9.350;2022-10-18T04:18:16;16.90;99.90
14670;DHT22;7423;48.722;9.350;2022-10-18T04:20:43;16.90;99.90
14670;DHT22;7423;48.722;9.350;2022-10-18T04:23:10;16.90;99.90
14670;DHT22;7423;48.722;9.350;2022-10-18T04:25:37;16.90;99.90
14670;DHT22;7423;48.722;9.350;2022-10-18T04:28:04;16.90;99.90
14670;DHT22;7423;48.722;9.350;2022-10-18T04:30:31;16.90;99.90
14670;DHT22;7423;48.722;9.350;2022-10-18T04:32:57;16.90;99.90
14670;DHT22;7423;48.722;9.350;2022-10-18T04:35:24;16.90;99.90
14670;DHT22;7423;48.722;9.350;2022-10-18T04:37:53;16.80;99.90
14670;DHT22;7423;48.722;9.350;2022-10-18T04:40:20;16.80;99.90
14670;DHT22;7423;48.722;9.350;2022-10-18T04:42:47;16.90;99.90
14670;DHT22;7423;48.722;9.350;2022-10-18T04:45:14;16.90;99.90
14670;DHT22;7423;48.722;9.350;2022-10-18T04:47:41;16.90;99.90
14670;DHT22;7423;48.722;9.350;2022-10-18T04:50:07;16.90;99.90
14670;DHT22;7423;48.722;9.350;2022-10-18T04:52:35;16.90;99.90
14670;DHT22;7423;48.722;9.350;2022-10-18T04:55:02;16.90;99.90
14670;DHT22;7423;48.722;9.350;2022-10-18T04:57:28;16.90;99.90
14670;DHT22;7423;48.722;9.350;2022-10-18T04:59:56;16.90;99.90
14670;DHT22;7423;48.722;9.350;2022-10-18T05:02:23;16.90;99.90
14670;DHT22;7423;48.722;9.350;2022-10-18T05:04:50;16.90;99.90
14670;DHT22;7423;48.722;9.350;2022-10-18T05:07:17;17.00;99.90
14670;DHT22;7423;48.722;9.350;2022-10-18T05:09:44;16.90;99.90
14670;DHT22;7423;48.722;9.350;2022-10-18T05:12:11;16.90;99.90
14670;DHT22;7423;48.722;9.350;2022-10-18T05:14:37;17.00;99.90
14670;DHT22;7423;48.722;9.350;2022-10-18T05:17:05;17.00;99.90
14670;DHT22;7423;48.722;9.350;2022-10-18T05:19:32;16.80;99.90
14670;DHT22;7423;48.722;9.350;2022-10-18T05:21:59;16.90;99.90
14670;DHT22;7423;48.722;9.350;2022-10-18T05:24:26;16.90;99.90
14670;DHT22;7423;48.722;9.350;2022-10-18T05:26:53;16.90;99.90
14670;DHT22;7423;48.722;9.350;2022-10-18T05:29:20;16.90;99.90
14670;DHT22;7423;48.722;9.350;2022-10-18T05:31:47;16.90;99.90
14670;DHT22;7423;48.722;9.350;2022-10-18T05:34:16;16.90;99.90
14670;DHT22;7423;48.722;9.350;2022-10-18T05:36:43;16.90;99.90
14670;DHT22;7423;48.722;9.350;2022-10-18T05:39:10;16.90;99.90
14670;DHT22;7423;48.722;9.350;2022-10-18T05:41:36;16.90;99.90
14670;DHT22;7423;48.722;9.350;2022-10-18T05:44:04;16.90;99.90
14670;DHT22;7423;48.722;9.350;2022-10-18T05:46:31;16.90;99.90
14670;DHT22;7423;48.722;9.350;2022-10-18T05:48:58;16.90;99.90
14670;DHT22;7423;48.722;9.350;2022-10-18T05:51:25;16.90;99.90
14670;DHT22;7423;48.722;9.350;2022-10-18T05:53:52;16.80;99.90
14670;DHT22;7423;48.722;9.350;2022-10-18T05:56:20;16.90;99.90
14670;DHT22;7423;48.722;9.350;2022-10-18T05:58:50;16.90;99.90
14670;DHT22;7423;48.722;9.350;2022-10-18T06:01:17;16.80;99.90
14670;DHT22;7423;48.722;9.350;2022-10-18T06:03:44;16.80;99.90
14670;DHT22;7423;48.722;9.350;2022-10-18T06:06:12;16.80;99.90
14670;DHT22;7423;48.722;9.350;2022-10-18T06:08:40;16.80;99.90
14670;DHT22;7423;48.722;9.350;2022-10-18T06:11:16;16.80;99.90
14670;DHT22;7423;48.722;9.350;2022-10-18T06:13:49;16.80;99.90
14670;DHT22;7423;48.722;9.350;2022-10-18T06:16:19;16.80;99.90
14670;DHT22;7423;48.722;9.350;2022-10-18T06:18:56;16.80;99.90
14670;DHT22;7423;48.722;9.350;2022-10-18T06:21:25;16.80;99.90
14670;DHT22;7423;48.722;9.350;2022-10-18T06:23:54;16.80;99.90
14670;DHT22;7423;48.722;9.350;2022-10-18T06:26:23;16.80;99.90
14670;DHT22;7423;48.722;9.350;2022-10-18T06:28:50;16.80;99.90
14670;DHT22;7423;48.722;9.350;2022-10-18T06:31:18;16.80;99.90
14670;DHT22;7423;48.722;9.350;2022-10-18T06:33:46;16.80;99.90
14670;DHT22;7423;48.722;9.350;2022-10-18T06:36:16;16.70;99.90
14670;DHT22;7423;48.722;9.350;2022-10-18T06:38:44;16.70;99.90
14670;DHT22;7423;48.722;9.350;2022-10-18T06:41:10;16.70;99.90
14670;DHT22;7423;48.722;9.350;2022-10-18T06:43:38;16.70;99.90
14670;DHT22;7423;48.722;9.350;2022-10-18T06:46:06;16.70;99.90
14670;DHT22;7423;48.722;9.350;2022-10-18T06:48:35;16.70;99.90
14670;DHT22;7423;48.722;9.350;2022-10-18T06:51:04;16.80;99.90
14670;DHT22;7423;48.722;9.350;2022-10-18T06:53:34;16.80;99.90
14670;DHT22;7423;48.722;9.350;2022-10-18T06:56:14;16.90;99.90
14670;DHT22;7423;48.722;9.350;2022-10-18T06:58:41;16.90;99.90
14670;DHT22;7423;48.722;9.350;2022-10-18T07:01:09;17.00;99.90
14670;DHT22;7423;48.722;9.350;2022-10-18T07:03:38;17.00;99.90
14670;DHT22;7423;48.722;9.350;2022-10-18T07:06:06;17.00;99.90
14670;DHT22;7423;48.722;9.350;2022-10-18T07:08:34;17.10;99.90
14670;DHT22;7423;48.722;9.350;2022-10-18T07:11:02;17.10;99.90
14670;DHT22;7423;48.722;9.350;2022-10-18T07:13:31;17.20;99.90
14670;DHT22;7423;48.722;9.350;2022-10-18T07:16:06;17.20;99.90
14670;DHT22;7423;48.722;9.350;2022-10-18T07:18:46;17.20;99.90
14670;DHT22;7423;48.722;9.350;2022-10-18T07:21:17;17.30;99.90
14670;DHT22;7423;48.722;9.350;2022-10-18T07:23:45;17.30;99.90
14670;DHT22;7423;48.722;9.350;2022-10-18T07:28:52;17.40;99.90
14670;DHT22;7423;48.722;9.350;2022-10-18T07:31:21;17.40;99.90
14670;DHT22;7423;48.722;9.350;2022-10-18T07:33:49;17.50;99.90
14670;DHT22;7423;48.722;9.350;2022-10-18T07:36:16;17.40;99.90
14670;DHT22;7423;48.722;9.350;2022-10-18T07:38:44;17.40;99.90
14670;DHT22;7423;48.722;9.350;2022-10-18T07:41:12;17.40;99.90
14670;DHT22;7423;48.722;9.350;2022-10-18T07:43:44;17.50;99.90
14670;DHT22;7423;48.722;9.350;2022-10-18T07:46:14;17.50;99.90
14670;DHT22;7423;48.722;9.350;2022-10-18T07:48:41;17.50;99.90
14670;DHT22;7423;48.722;9.350;2022-10-18T07:51:09;17.50;99.90
14670;DHT22;7423;48.722;9.350;2022-10-18T07:53:36;17.60;99.90
14670;DHT22;7423;48.722;9.350;2022-10-18T07:56:12;17.60;99.90
14670;DHT22;7423;48.722;9.350;2022-10-18T07:58:50;17.60;99.90
14670;DHT22;7423;48.722;9.350;2022-10-18T08:01:20;17.70;99.90
14670;DHT22;7423;48.722;9.350;2022-10-18T08:03:49;17.70;99.90
14670;DHT22;7423;48.722;9.350;2022-10-18T08:06:17;17.70;99.90
14670;DHT22;7423;48.722;9.350;2022-10-18T08:08:46;17.70;99.90
14670;DHT22;7423;48.722;9.350;2022-10-18T08:11:16;17.80;99.90
14670;DHT22;7423;48.722;9.350;2022-10-18T08:13:45;17.70;99.90
14670;DHT22;7423;48.722;9.350;2022-10-18T08:16:15;17.80;99.90
14670;DHT22;7423;48.722;9.350;2022-10-18T08:18:43;17.80;99.90
14670;DHT22;7423;48.722;9.350;2022-10-18T08:21:12;17.90;99.90
14670;DHT22;7423;48.722;9.350;2022-10-18T08:23:40;17.90;99.90
14670;DHT22;7423;48.722;9.350;2022-10-18T08:26:13;17.90;99.90
14670;DHT22;7423;48.722;9.350;2022-10-18T08:28:41;18.00;99.90
14670;DHT22;7423;48.722;9.350;2022-10-18T08:31:24;17.90;99.90
14670;DHT22;7423;48.722;9.350;2022-10-18T08:33:53;18.00;99.90
14670;DHT22;7423;48.722;9.350;2022-10-18T08:36:20;18.10;99.90
14670;DHT22;7423;48.722;9.350;2022-10-18T08:38:47;18.10;99.90
14670;DHT22;7423;48.722;9.350;2022-10-18T08:44:13;18.10;99.90
14670;DHT22;7423;48.722;9.350;2022-10-18T08:46:46;18.20;99.90
14670;DHT22;7423;48.722;9.350;2022-10-18T08:55:11;18.30;99.90
14670;DHT22;7423;48.722;9.350;2022-10-18T08:57:43;18.30;99.90
14670;DHT22;7423;48.722;9.350;2022-10-18T09:00:15;18.30;99.90
14670;DHT22;7423;48.722;9.350;2022-10-18T09:03:25;18.40;99.90
14670;DHT22;7423;48.722;9.350;2022-10-18T09:12:28;18.70;99.90
14670;DHT22;7423;48.722;9.350;2022-10-18T09:18:42;18.90;99.90
14670;DHT22;7423;48.722;9.350;2022-10-18T09:20:57;19.00;99.90
14670;DHT22;7423;48.722;9.350;2022-10-18T09:23:47;19.10;99.90
14670;DHT22;7423;48.722;9.350;2022-10-18T09:26:20;19.10;99.90
14670;DHT22;7423;48.722;9.350;2022-10-18T09:28:58;19.20;99.90
14670;DHT22;7423;48.722;9.350;2022-10-18T09:34:31;19.20;99.90
14670;DHT22;7423;48.722;9.350;2022-10-18T09:37:04;19.30;99.90
14670;DHT22;7423;48.722;9.350;2022-10-18T09:39:37;19.20;99.90
14670;DHT22;7423;48.722;9.350;2022-10-18T09:44:50;19.30;99.90
14670;DHT22;7423;48.722;9.350;2022-10-18T09:47:31;19.30;99.90
14670;DHT22;7423;48.722;9.350;2022-10-18T09:50:20;19.30;99.90
14670;DHT22;7423;48.722;9.350;2022-10-18T09:53:55;19.40;99.90
14670;DHT22;7423;48.722;9.350;2022-10-18T09:56:16;19.40;99.90
14670;DHT22;7423;48.722;9.350;2022-10-18T09:58:47;19.50;99.90
14670;DHT22;7423;48.722;9.350;2022-10-18T10:01:21;19.50;99.90
14670;DHT22;7423;48.722;9.350;2022-10-18T10:03:51;19.60;99.90
14670;DHT22;7423;48.722;9.350;2022-10-18T10:06:28;19.60;99.90
14670;DHT22;7423;48.722;9.350;2022-10-18T10:09:12;19.70;99.90
14670;DHT22;7423;48.722;9.350;2022-10-18T10:11:48;19.70;99.90
14670;DHT22;7423;48.722;9.350;2022-10-18T10:14:18;19.80;99.90
14670;DHT22;7423;48.722;9.350;2022-10-18T10:17:27;19.80;99.90
14670;DHT22;7423;48.722;9.350;2022-10-18T10:20:18;20.00;99.90
14670;DHT22;7423;48.722;9.350;2022-10-18T10:22:48;20.10;99.90
14670;DHT22;7423;48.722;9.350;2022-10-18T10:25:31;20.20;99.90
14670;DHT22;7423;48.722;9.350;2022-10-18T10:28:06;20.40;99.90
14670;DHT22;7423;48.722;9.350;2022-10-18T10:30:39;20.50;99.90
14670;DHT22;7423;48.722;9.350;2022-10-18T10:36:08;20.60;99.90
14670;DHT22;7423;48.722;9.350;2022-10-18T10:38:42;20.70;99.90
14670;DHT22;7423;48.722;9.350;2022-10-18T10:41:22;20.80;99.90
14670;DHT22;7423;48.722;9.350;2022-10-18T10:43:49;20.90;99.90
14670;DHT22;7423;48.722;9.350;2022-10-18T10:46:18;21.00;99.90
14670;DHT22;7423;48.722;9.350;2022-10-18T10:48:51;21.10;99.90
14670;DHT22;7423;48.722;9.350;2022-10-18T10:51:39;21.30;99.90
14670;DHT22;7423;48.722;9.350;2022-10-18T10:54:12;21.50;99.90
14670;DHT22;7423;48.722;9.350;2022-10-18T10:57:04;21.50;99.90
14670;DHT22;7423;48.722;9.350;2022-10-18T10:59:43;21.60;99.90
14670;DHT22;7423;48.722;9.350;2022-10-18T11:04:49;21.60;99.90
14670;DHT22;7423;48.722;9.350;2022-10-18T11:07:33;21.60;99.90
14670;DHT22;7423;48.722;9.350;2022-10-18T11:15:31;21.70;99.90
14670;DHT22;7423;48.722;9.350;2022-10-18T11:18:10;21.80;99.90
14670;DHT22;7423;48.722;9.350;2022-10-18T11:23:35;21.80;99.90
14670;DHT22;7423;48.722;9.350;2022-10-18T11:31:31;21.80;99.90
14670;DHT22;7423;48.722;9.350;2022-10-18T11:46:50;22.00;99.90
14670;DHT22;7423;48.722;9.350;2022-10-18T11:49:50;22.00;99.90
14670;DHT22;7423;48.722;9.350;2022-10-18T11:56:23;22.00;99.90
14670;DHT22;7423;48.722;9.350;2022-10-18T11:59:27;22.00;99.90
14670;DHT22;7423;48.722;9.350;2022-10-18T12:04:53;22.00;99.90
14670;DHT22;7423;48.722;9.350;2022-10-18T12:10:51;22.00;99.90
14670;DHT22;7423;48.722;9.350;2022-10-18T12:14:13;22.00;99.90
14670;DHT22;7423;48.722;9.350;2022-10-18T12:16:42;22.00;99.90
14670;DHT22;7423;48.722;9.350;2022-10-18T12:19:21;22.00;99.90
14670;DHT22;7423;48.722;9.350;2022-10-18T12:22:01;22.00;99.90
14670;DHT22;7423;48.722;9.350;2022-10-18T12:24:36;22.10;99.90
14670;DHT22;7423;48.722;9.350;2022-10-18T12:27:03;22.10;99.90
14670;DHT22;7423;48.722;9.350;2022-10-18T12:32:11;22.10;99.90
14670;DHT22;7423;48.722;9.350;2022-10-18T12:34:51;22.10;99.90
14670;DHT22;7423;48.722;9.350;2022-10-18T12:37:50;22.00;99.90
14670;DHT22;7423;48.722;9.350;2022-10-18T12:40:43;22.10;99.90
14670;DHT22;7423;48.722;9.350;2022-10-18T12:43:23;22.10;99.90
14670;DHT22;7423;48.722;9.350;2022-10-18T12:45:55;22.10;99.90
14670;DHT22;7423;48.722;9.350;2022-10-18T12:48:37;22.20;99.90
14670;DHT22;7423;48.722;9.350;2022-10-18T12:51:12;22.30;99.90
14670;DHT22;7423;48.722;9.350;2022-10-18T12:53:42;22.30;99.90
14670;DHT22;7423;48.722;9.350;2022-10-18T13:09:25;22.50;99.90
14670;DHT22;7423;48.722;9.350;2022-10-18T13:17:38;22.60;99.90
14670;DHT22;7423;48.722;9.350;2022-10-18T13:20:36;22.70;99.90
14670;DHT22;7423;48.722;9.350;2022-10-18T13:23:28;22.70;99.90
14670;DHT22;7423;48.722;9.350;2022-10-18T13:32:18;22.70;99.90
14670;DHT22;7423;48.722;9.350;2022-10-18T13:34:49;22.80;99.90
14670;DHT22;7423;48.722;9.350;2022-10-18T13:39:42;22.80;99.90
14670;DHT22;7423;48.722;9.350;2022-10-18T13:44:41;22.90;99.90
14670;DHT22;7423;48.722;9.350;2022-10-18T13:47:15;22.90;99.90
14670;DHT22;7423;48.722;9.350;2022-10-18T13:50:14;22.90;99.90
14670;DHT22;7423;48.722;9.350;2022-10-18T13:53:01;22.90;99.90
14670;DHT22;7423;48.722;9.350;2022-10-18T13:56:09;22.90;99.90
14670;DHT22;7423;48.722;9.350;2022-10-18T14:08:18;22.90;99.90
14670;DHT22;7423;48.722;9.350;2022-10-18T14:10:55;22.90;99.90
14670;DHT22;7423;48.722;9.350;2022-10-18T14:13:57;22.90;99.90
14670;DHT22;7423;48.722;9.350;2022-10-18T14:17:17;22.90;99.90
14670;DHT22;7423;48.722;9.350;2022-10-18T14:25:45;22.80;99.90
14670;DHT22;7423;48.722;9.350;2022-10-18T14:28:16;22.80;99.90
14670;DHT22;7423;48.722;9.350;2022-10-18T14:31:12;22.80;99.90
14670;DHT22;7423;48.722;9.350;2022-10-18T14:33:53;22.80;99.90
14670;DHT22;7423;48.722;9.350;2022-10-18T14:36:26;22.70;99.90
14670;DHT22;7423;48.722;9.350;2022-10-18T14:39:05;22.70;99.90
14670;DHT22;7423;48.722;9.350;2022-10-18T14:41:36;22.70;99.90
14670;DHT22;7423;48.722;9.350;2022-10-18T14:47:12;22.70;99.90
14670;DHT22;7423;48.722;9.350;2022-10-18T14:49:42;22.70;99.90
14670;DHT22;7423;48.722;9.350;2022-10-18T14:52:17;22.70;99.90
14670;DHT22;7423;48.722;9.350;2022-10-18T14:54:54;22.60;99.90
14670;DHT22;7423;48.722;9.350;2022-10-18T14:57:28;22.70;99.90
14670;DHT22;7423;48.722;9.350;2022-10-18T15:00:00;22.70;99.90
14670;DHT22;7423;48.722;9.350;2022-10-18T15:02:31;22.70;99.90
14670;DHT22;7423;48.722;9.350;2022-10-18T15:05:21;22.70;99.90
14670;DHT22;7423;48.722;9.350;2022-10-18T15:07:50;22.70;99.90
14670;DHT22;7423;48.722;9.350;2022-10-18T15:10:21;22.70;99.90
14670;DHT22;7423;48.722;9.350;2022-10-18T15:12:50;22.60;99.90
14670;DHT22;7423;48.722;9.350;2022-10-18T15:15:35;22.60;99.90
14670;DHT22;7423;48.722;9.350;2022-10-18T15:18:03;22.50;99.90
14670;DHT22;7423;48.722;9.350;2022-10-18T15:20:34;22.60;99.90
14670;DHT22;7423;48.722;9.350;2022-10-18T15:23:25;22.50;99.90
14670;DHT22;7423;48.722;9.350;2022-10-18T15:26:08;22.50;99.90
14670;DHT22;7423;48.722;9.350;2022-10-18T15:28:43;22.50;99.90
14670;DHT22;7423;48.722;9.350;2022-10-18T15:34:10;22.50;99.90
14670;DHT22;7423;48.722;9.350;2022-10-18T15:36:49;22.50;99.90
14670;DHT22;7423;48.722;9.350;2022-10-18T15:41:50;22.40;99.90
14670;DHT22;7423;48.722;9.350;2022-10-18T15:44:45;22.40;99.90
14670;DHT22;7423;48.722;9.350;2022-10-18T15:47:16;22.40;99.90
14670;DHT22;7423;48.722;9.350;2022-10-18T15:49:55;22.50;99.90
14670;DHT22;7423;48.722;9.350;2022-10-18T16:00:57;22.30;99.90
14670;DHT22;7423;48.722;9.350;2022-10-18T16:03:27;22.30;99.90
14670;DHT22;7423;48.722;9.350;2022-10-18T16:06:02;22.30;99.90
14670;DHT22;7423;48.722;9.350;2022-10-18T16:08:31;22.20;99.90
14670;DHT22;7423;48.722;9.350;2022-10-18T16:11:02;22.20;99.90
14670;DHT22;7423;48.722;9.350;2022-10-18T16:13:29;22.10;99.90
14670;DHT22;7423;48.722;9.350;2022-10-18T16:15:56;22.10;99.90
14670;DHT22;7423;48.722;9.350;2022-10-18T16:18:25;22.20;99.90
14670;DHT22;7423;48.722;9.350;2022-10-18T16:20:52;22.10;99.90
14670;DHT22;7423;48.722;9.350;2022-10-18T16:23:25;22.10;99.90
14670;DHT22;7423;48.722;9.350;2022-10-18T16:25:53;22.10;99.90
14670;DHT22;7423;48.722;9.350;2022-10-18T16:28:23;22.00;99.90
14670;DHT22;7423;48.722;9.350;2022-10-18T16:30:57;22.00;99.90
14670;DHT22;7423;48.722;9.350;2022-10-18T16:33:25;22.00;99.90
14670;DHT22;7423;48.722;9.350;2022-10-18T16:35:53;22.00;99.90
14670;DHT22;7423;48.722;9.350;2022-10-18T16:38:28;22.00;99.90
14670;DHT22;7423;48.722;9.350;2022-10-18T16:41:05;21.90;99.90
14670;DHT22;7423;48.722;9.350;2022-10-18T16:43:33;21.90;99.90
14670;DHT22;7423;48.722;9.350;2022-10-18T16:46:01;21.90;99.90
14670;DHT22;7423;48.722;9.350;2022-10-18T16:48:29;21.80;99.90
14670;DHT22;7423;48.722;9.350;2022-10-18T16:50:56;21.90;99.90
14670;DHT22;7423;48.722;9.350;2022-10-18T16:53:24;21.80;99.90
14670;DHT22;7423;48.722;9.350;2022-10-18T16:55:54;21.80;99.90
14670;DHT22;7423;48.722;9.350;2022-10-18T16:58:24;21.80;99.90
14670;DHT22;7423;48.722;9.350;2022-10-18T17:00:52;21.70;99.90
14670;DHT22;7423;48.722;9.350;2022-10-18T17:03:19;21.70;99.90
14670;DHT22;7423;48.722;9.350;2022-10-18T17:05:46;21.70;99.90
14670;DHT22;7423;48.722;9.350;2022-10-18T17:08:20;21.70;99.90
14670;DHT22;7423;48.722;9.350;2022-10-18T17:10:50;21.60;99.90
14670;DHT22;7423;48.722;9.350;2022-10-18T17:13:21;21.60;99.90
14670;DHT22;7423;48.722;9.350;2022-10-18T17:15:49;21.60;99.90
14670;DHT22;7423;48.722;9.350;2022-10-18T17:18:20;21.60;99.90
14670;DHT22;7423;48.722;9.350;2022-10-18T17:20:49;21.60;99.90
14670;DHT22;7423;48.722;9.350;2022-10-18T17:23:16;21.60;99.90
14670;DHT22;7423;48.722;9.350;2022-10-18T17:25:43;21.60;99.90
14670;DHT22;7423;48.722;9.350;2022-10-18T17:28:30;21.60;99.90
14670;DHT22;7423;48.722;9.350;2022-10-18T17:30:57;21.60;99.90
14670;DHT22;7423;48.722;9.350;2022-10-18T17:33:24;21.50;99.90
14670;DHT22;7423;48.722;9.350;2022-10-18T17:35:51;21.50;99.90
14670;DHT22;7423;48.722;9.350;2022-10-18T17:38:18;21.50;99.90
14670;DHT22;7423;48.722;9.350;2022-10-18T17:40:45;21.50;99.90
14670;DHT22;7423;48.722;9.350;2022-10-18T17:43:12;21.40;99.90
14670;DHT22;7423;48.722;9.350;2022-10-18T17:45:54;21.50;99.90
14670;DHT22;7423;48.722;9.350;2022-10-18T17:48:22;21.50;99.90
14670;DHT22;7423;48.722;9.350;2022-10-18T17:50:49;21.40;99.90
14670;DHT22;7423;48.722;9.350;2022-10-18T17:53:16;21.30;99.90
14670;DHT22;7423;48.722;9.350;2022-10-18T17:55:48;21.40;99.90
14670;DHT22;7423;48.722;9.350;2022-10-18T17:58:15;21.30;99.90
14670;DHT22;7423;48.722;9.350;2022-10-18T18:00:42;21.30;99.90
14670;DHT22;7423;48.722;9.350;2022-10-18T18:03:08;21.30;99.90
14670;DHT22;7423;48.722;9.350;2022-10-18T18:05:35;21.30;99.90
14670;DHT22;7423;48.722;9.350;2022-10-18T18:08:02;21.30;99.90
14670;DHT22;7423;48.722;9.350;2022-10-18T18:10:32;21.30;99.90
14670;DHT22;7423;48.722;9.350;2022-10-18T18:13:00;21.20;99.90
14670;DHT22;7423;48.722;9.350;2022-10-18T18:15:27;21.10;99.90
14670;DHT22;7423;48.722;9.350;2022-10-18T18:17:54;21.20;99.90
14670;DHT22;7423;48.722;9.350;2022-10-18T18:20:24;21.20;99.90
14670;DHT22;7423;48.722;9.350;2022-10-18T18:22:51;21.20;99.90
14670;DHT22;7423;48.722;9.350;2022-10-18T18:25:18;21.20;99.90
14670;DHT22;7423;48.722;9.350;2022-10-18T18:27:45;21.20;99.90
14670;DHT22;7423;48.722;9.350;2022-10-18T18:30:12;21.10;99.90
14670;DHT22;7423;48.722;9.350;2022-10-18T18:32:40;21.10;99.90
14670;DHT22;7423;48.722;9.350;2022-10-18T18:35:08;21.10;99.90
14670;DHT22;7423;48.722;9.350;2022-10-18T18:37:34;21.00;99.90
14670;DHT22;7423;48.722;9.350;2022-10-18T18:40:01;21.00;99.90
14670;DHT22;7423;48.722;9.350;2022-10-18T18:42:28;21.00;99.90
14670;DHT22;7423;48.722;9.350;2022-10-18T18:44:55;20.90;99.90
14670;DHT22;7423;48.722;9.350;2022-10-18T18:47:22;20.90;99.90
14670;DHT22;7423;48.722;9.350;2022-10-18T18:49:49;20.90;99.90
14670;DHT22;7423;48.722;9.350;2022-10-18T18:52:17;20.90;99.90
14670;DHT22;7423;48.722;9.350;2022-10-18T18:54:44;20.80;99.90